VOZ1682 YAYE-YMML
Flight info
| Callsign | VOZ1682 |
|---|---|
| Flight time | 2h 23m |
| Altitude | 39000 |
| Route | AY2WI DCT RUNRU DCT IDK DCT LEC H119 ARBEY |
| Aircraft | B38M/M-SDE1FGHILORVWXY/HB1 |
Departure
| Time | 2026-05-04 03:10 |
|---|---|
| Airport | Ayers Rock Connellan Airport (YAYE) |
Arrival
| Time | 2026-05-04 05:33 |
|---|---|
| Airport | Melbourne Airport (YMML) |
| Time | Latitude | Longitude | Altitude | Speed | Heading |
|---|---|---|---|---|---|
| 2026-05-04 02:51 | -25.19040 | 130.97739 | 1633 ft | 0 kts | 268° |
| 2026-05-04 03:04 | -25.19034 | 130.97721 | 1633 ft | 4 kts | 319° |
| 2026-05-04 03:04 | -25.19014 | 130.97724 | 1635 ft | 3 kts | 15° |
| 2026-05-04 03:04 | -25.18993 | 130.97727 | 1632 ft | 4 kts | 354° |
| 2026-05-04 03:05 | -25.18950 | 130.97720 | 1634 ft | 8 kts | 14° |
| 2026-05-04 03:05 | -25.18902 | 130.97758 | 1634 ft | 10 kts | 41° |
| 2026-05-04 03:05 | -25.18847 | 130.97812 | 1635 ft | 12 kts | 40° |
| 2026-05-04 03:05 | -25.18778 | 130.97873 | 1634 ft | 13 kts | 34° |
| 2026-05-04 03:06 | -25.18694 | 130.97852 | 1636 ft | 14 kts | 311° |
| 2026-05-04 03:06 | -25.18631 | 130.97764 | 1635 ft | 15 kts | 308° |
| 2026-05-04 03:06 | -25.18561 | 130.97676 | 1636 ft | 17 kts | 309° |
| 2026-05-04 03:06 | -25.18471 | 130.97553 | 1637 ft | 25 kts | 309° |
| 2026-05-04 03:07 | -25.18351 | 130.97393 | 1636 ft | 25 kts | 310° |
| 2026-05-04 03:07 | -25.18233 | 130.97237 | 1635 ft | 28 kts | 310° |
| 2026-05-04 03:07 | -25.18103 | 130.97062 | 1630 ft | 28 kts | 308° |
| 2026-05-04 03:07 | -25.17980 | 130.96900 | 1634 ft | 27 kts | 310° |
| 2026-05-04 03:08 | -25.17875 | 130.96761 | 1630 ft | 23 kts | 310° |
| 2026-05-04 03:08 | -25.17821 | 130.96674 | 1631 ft | 1 kts | 276° |
| 2026-05-04 03:08 | -25.17826 | 130.96669 | 1632 ft | 2 kts | 219° |
| 2026-05-04 03:08 | -25.17833 | 130.96676 | 1631 ft | 3 kts | 115° |
| 2026-05-04 03:09 | -25.17849 | 130.96722 | 1631 ft | 9 kts | 124° |
| 2026-05-04 03:09 | -25.17949 | 130.96855 | 1633 ft | 53 kts | 131° |
| 2026-05-04 03:09 | -25.18332 | 130.97368 | 1637 ft | 119 kts | 129° |
| 2026-05-04 03:09 | -25.18979 | 130.98224 | 1741 ft | 162 kts | 130° |
| 2026-05-04 03:10 | -25.19731 | 130.99199 | 2403 ft | 169 kts | 131° |
| 2026-05-04 03:10 | -25.20522 | 131.00146 | 3249 ft | 170 kts | 141° |
| 2026-05-04 03:10 | -25.21676 | 131.00614 | 3700 ft | 193 kts | 178° |
| 2026-05-04 03:10 | -25.23042 | 131.00154 | 4070 ft | 224 kts | 212° |
| 2026-05-04 03:11 | -25.24108 | 130.98775 | 4496 ft | 252 kts | 244° |
| 2026-05-04 03:11 | -25.24418 | 130.96878 | 5334 ft | 258 kts | 269° |
| 2026-05-04 03:11 | -25.24305 | 130.94835 | 5885 ft | 274 kts | 274° |
| 2026-05-04 03:11 | -25.23877 | 130.92812 | 6861 ft | 268 kts | 297° |
| 2026-05-04 03:12 | -25.22698 | 130.91238 | 7827 ft | 270 kts | 320° |
| 2026-05-04 03:12 | -25.21119 | 130.90069 | 8579 ft | 276 kts | 325° |
| 2026-05-04 03:12 | -25.19370 | 130.89235 | 9379 ft | 283 kts | 350° |
| 2026-05-04 03:12 | -25.17394 | 130.89483 | 10136 ft | 296 kts | 18° |
| 2026-05-04 03:13 | -25.15507 | 130.90567 | 10554 ft | 315 kts | 25° |
| 2026-05-04 03:13 | -25.13484 | 130.91632 | 11029 ft | 328 kts | 21° |
| 2026-05-04 03:13 | -25.11367 | 130.92612 | 11771 ft | 330 kts | 19° |
| 2026-05-04 03:13 | -25.09210 | 130.93533 | 12556 ft | 334 kts | 18° |
| 2026-05-04 03:14 | -25.07029 | 130.94482 | 13350 ft | 340 kts | 26° |
| 2026-05-04 03:14 | -25.05244 | 130.96191 | 14167 ft | 347 kts | 54° |
| 2026-05-04 03:14 | -25.04296 | 130.98611 | 14846 ft | 354 kts | 78° |
| 2026-05-04 03:14 | -25.03970 | 131.01327 | 15573 ft | 359 kts | 85° |
| 2026-05-04 03:15 | -25.04157 | 131.04079 | 16267 ft | 363 kts | 106° |
| 2026-05-04 03:15 | -25.05200 | 131.06605 | 16940 ft | 365 kts | 128° |
| 2026-05-04 03:15 | -25.06875 | 131.08708 | 17622 ft | 367 kts | 135° |
| 2026-05-04 03:15 | -25.08629 | 131.10785 | 18292 ft | 372 kts | 136° |
| 2026-05-04 03:16 | -25.10416 | 131.12876 | 18922 ft | 376 kts | 136° |
| 2026-05-04 03:16 | -25.12231 | 131.14981 | 19512 ft | 380 kts | 136° |
| 2026-05-04 03:16 | -25.14068 | 131.17103 | 20093 ft | 384 kts | 136° |
| 2026-05-04 03:16 | -25.15930 | 131.19251 | 20652 ft | 389 kts | 137° |
| 2026-05-04 03:17 | -25.17785 | 131.21391 | 21209 ft | 393 kts | 137° |
| 2026-05-04 03:17 | -25.19692 | 131.23590 | 21766 ft | 397 kts | 137° |
| 2026-05-04 03:17 | -25.21614 | 131.25807 | 22312 ft | 401 kts | 137° |
| 2026-05-04 03:17 | -25.23556 | 131.28048 | 22857 ft | 405 kts | 137° |
| 2026-05-04 03:18 | -25.25511 | 131.30306 | 23383 ft | 409 kts | 137° |
| 2026-05-04 03:18 | -25.27469 | 131.32567 | 23880 ft | 413 kts | 137° |
| 2026-05-04 03:18 | -25.29462 | 131.34872 | 24325 ft | 416 kts | 137° |
| 2026-05-04 03:18 | -25.31475 | 131.37200 | 24769 ft | 420 kts | 137° |
| 2026-05-04 03:19 | -25.33496 | 131.39538 | 25207 ft | 423 kts | 137° |
| 2026-05-04 03:19 | -25.35536 | 131.41900 | 25641 ft | 426 kts | 137° |
| 2026-05-04 03:19 | -25.37593 | 131.44282 | 26069 ft | 429 kts | 137° |
| 2026-05-04 03:19 | -25.39662 | 131.46679 | 26486 ft | 432 kts | 137° |
| 2026-05-04 03:20 | -25.41746 | 131.49096 | 26904 ft | 435 kts | 136° |
| 2026-05-04 03:20 | -25.43842 | 131.51527 | 27317 ft | 438 kts | 136° |
| 2026-05-04 03:20 | -25.45928 | 131.53949 | 27706 ft | 441 kts | 136° |
| 2026-05-04 03:20 | -25.48055 | 131.56419 | 28098 ft | 444 kts | 136° |
| 2026-05-04 03:21 | -25.50194 | 131.58903 | 28481 ft | 447 kts | 136° |
| 2026-05-04 03:21 | -25.52351 | 131.61411 | 28861 ft | 450 kts | 136° |
| 2026-05-04 03:21 | -25.54515 | 131.63929 | 29250 ft | 453 kts | 136° |
| 2026-05-04 03:21 | -25.56697 | 131.66469 | 29606 ft | 456 kts | 136° |
| 2026-05-04 03:22 | -25.58890 | 131.69023 | 29977 ft | 459 kts | 136° |
| 2026-05-04 03:22 | -25.61098 | 131.71595 | 30323 ft | 462 kts | 136° |
| 2026-05-04 03:22 | -25.63324 | 131.74190 | 30618 ft | 465 kts | 136° |
| 2026-05-04 03:22 | -25.65560 | 131.76799 | 30926 ft | 467 kts | 136° |
| 2026-05-04 03:23 | -25.67803 | 131.79417 | 31221 ft | 470 kts | 136° |
| 2026-05-04 03:23 | -25.70035 | 131.82024 | 31516 ft | 472 kts | 136° |
| 2026-05-04 03:23 | -25.72304 | 131.84676 | 31815 ft | 475 kts | 136° |
| 2026-05-04 03:23 | -25.74589 | 131.87348 | 32101 ft | 477 kts | 136° |
| 2026-05-04 03:24 | -25.76881 | 131.90030 | 32389 ft | 480 kts | 136° |
| 2026-05-04 03:24 | -25.79186 | 131.92728 | 32676 ft | 482 kts | 136° |
| 2026-05-04 03:24 | -25.81499 | 131.95437 | 32955 ft | 485 kts | 136° |
| 2026-05-04 03:24 | -25.83824 | 131.98162 | 33228 ft | 487 kts | 136° |
| 2026-05-04 03:25 | -25.86164 | 132.00907 | 33507 ft | 489 kts | 136° |
| 2026-05-04 03:25 | -25.88506 | 132.03655 | 33780 ft | 492 kts | 136° |
| 2026-05-04 03:25 | -25.90863 | 132.06424 | 34052 ft | 494 kts | 136° |
| 2026-05-04 03:25 | -25.93203 | 132.09173 | 34305 ft | 497 kts | 136° |
| 2026-05-04 03:26 | -25.95585 | 132.11974 | 34543 ft | 498 kts | 136° |
| 2026-05-04 03:26 | -25.97969 | 132.14779 | 34820 ft | 499 kts | 136° |
| 2026-05-04 03:26 | -26.00360 | 132.17593 | 35113 ft | 499 kts | 136° |
| 2026-05-04 03:26 | -26.02746 | 132.20405 | 35394 ft | 500 kts | 136° |
| 2026-05-04 03:27 | -26.05131 | 132.23216 | 35684 ft | 500 kts | 136° |
| 2026-05-04 03:27 | -26.07520 | 132.26034 | 35938 ft | 501 kts | 136° |
| 2026-05-04 03:27 | -26.09915 | 132.28860 | 36185 ft | 501 kts | 136° |
| 2026-05-04 03:27 | -26.12285 | 132.31659 | 36444 ft | 502 kts | 136° |
| 2026-05-04 03:28 | -26.14674 | 132.34482 | 36686 ft | 502 kts | 136° |
| 2026-05-04 03:28 | -26.17078 | 132.37325 | 36935 ft | 503 kts | 136° |
| 2026-05-04 03:28 | -26.19475 | 132.40161 | 37174 ft | 503 kts | 136° |
| 2026-05-04 03:28 | -26.21872 | 132.43000 | 37391 ft | 504 kts | 136° |
| 2026-05-04 03:29 | -26.24276 | 132.45848 | 37610 ft | 504 kts | 136° |
| 2026-05-04 03:29 | -26.26678 | 132.48696 | 37827 ft | 504 kts | 136° |
| 2026-05-04 03:29 | -26.29081 | 132.51547 | 38035 ft | 505 kts | 136° |
| 2026-05-04 03:29 | -26.31485 | 132.54401 | 38244 ft | 505 kts | 136° |
| 2026-05-04 03:30 | -26.33864 | 132.57227 | 38445 ft | 505 kts | 136° |
| 2026-05-04 03:30 | -26.36270 | 132.60087 | 38627 ft | 506 kts | 136° |
| 2026-05-04 03:30 | -26.38679 | 132.62952 | 38810 ft | 506 kts | 136° |
| 2026-05-04 03:30 | -26.41088 | 132.65819 | 38968 ft | 506 kts | 136° |
| 2026-05-04 03:31 | -26.43495 | 132.68686 | 39124 ft | 506 kts | 136° |
| 2026-05-04 03:31 | -26.48312 | 132.74429 | 39212 ft | 506 kts | 136° |
| 2026-05-04 03:32 | -26.53092 | 132.80135 | 39208 ft | 505 kts | 136° |
| 2026-05-04 03:32 | -26.57890 | 132.85870 | 39211 ft | 505 kts | 136° |
| 2026-05-04 03:33 | -26.62690 | 132.91614 | 39210 ft | 505 kts | 136° |
| 2026-05-04 03:33 | -26.67490 | 132.97368 | 39210 ft | 506 kts | 136° |
| 2026-05-04 03:34 | -26.72292 | 133.03130 | 39207 ft | 506 kts | 136° |
| 2026-05-04 03:34 | -26.77105 | 133.08914 | 39213 ft | 506 kts | 136° |
| 2026-05-04 03:35 | -26.81872 | 133.14648 | 39208 ft | 506 kts | 136° |
| 2026-05-04 03:35 | -26.86676 | 133.20435 | 39209 ft | 506 kts | 136° |
| 2026-05-04 03:36 | -26.91473 | 133.26219 | 39210 ft | 507 kts | 136° |
| 2026-05-04 03:36 | -26.96265 | 133.32036 | 39208 ft | 507 kts | 133° |
| 2026-05-04 03:37 | -27.00764 | 133.38091 | 39209 ft | 508 kts | 133° |
| 2026-05-04 03:37 | -27.05327 | 133.44165 | 39205 ft | 508 kts | 133° |
| 2026-05-04 03:38 | -27.09862 | 133.50202 | 39208 ft | 509 kts | 133° |
| 2026-05-04 03:38 | -27.14418 | 133.56276 | 39209 ft | 508 kts | 133° |
| 2026-05-04 03:39 | -27.18976 | 133.62360 | 39207 ft | 508 kts | 133° |
| 2026-05-04 03:39 | -27.23523 | 133.68438 | 39205 ft | 508 kts | 133° |
| 2026-05-04 03:40 | -27.28077 | 133.74535 | 39205 ft | 508 kts | 133° |
| 2026-05-04 03:40 | -27.32601 | 133.80598 | 39206 ft | 508 kts | 133° |
| 2026-05-04 03:41 | -27.37149 | 133.86703 | 39202 ft | 508 kts | 133° |
| 2026-05-04 03:41 | -27.41694 | 133.92813 | 39203 ft | 509 kts | 132° |
| 2026-05-04 03:42 | -27.46232 | 133.98922 | 39205 ft | 508 kts | 132° |
| 2026-05-04 03:42 | -27.50767 | 134.05035 | 39201 ft | 508 kts | 132° |
| 2026-05-04 03:43 | -27.55299 | 134.11154 | 39201 ft | 509 kts | 132° |
| 2026-05-04 03:43 | -27.59811 | 134.17254 | 39201 ft | 509 kts | 132° |
| 2026-05-04 03:44 | -27.64342 | 134.23387 | 39195 ft | 509 kts | 132° |
| 2026-05-04 03:44 | -27.68877 | 134.29535 | 39196 ft | 509 kts | 132° |
| 2026-05-04 03:45 | -27.73372 | 134.35639 | 39192 ft | 509 kts | 132° |
| 2026-05-04 03:45 | -27.77896 | 134.41788 | 39197 ft | 509 kts | 132° |
| 2026-05-04 03:46 | -27.82420 | 134.47948 | 39193 ft | 509 kts | 132° |
| 2026-05-04 03:46 | -27.86939 | 134.54109 | 39194 ft | 509 kts | 132° |
| 2026-05-04 03:47 | -27.91459 | 134.60282 | 39193 ft | 509 kts | 132° |
| 2026-05-04 03:47 | -27.95947 | 134.66419 | 39191 ft | 509 kts | 132° |
| 2026-05-04 03:48 | -28.00461 | 134.72601 | 39186 ft | 509 kts | 132° |
| 2026-05-04 03:48 | -28.04969 | 134.78782 | 39181 ft | 509 kts | 132° |
| 2026-05-04 03:49 | -28.09478 | 134.84974 | 39194 ft | 509 kts | 132° |
| 2026-05-04 03:49 | -28.13221 | 134.90122 | 39179 ft | 509 kts | 132° |
| 2026-05-04 03:50 | -28.18464 | 134.97344 | 39184 ft | 509 kts | 132° |
| 2026-05-04 03:50 | -28.22206 | 135.02503 | 39181 ft | 509 kts | 131° |
| 2026-05-04 03:51 | -28.26708 | 135.08722 | 39178 ft | 509 kts | 131° |
| 2026-05-04 03:51 | -28.31199 | 135.14933 | 39177 ft | 509 kts | 131° |
| 2026-05-04 03:52 | -28.35693 | 135.21158 | 39179 ft | 510 kts | 131° |
| 2026-05-04 03:52 | -28.40190 | 135.27397 | 39179 ft | 510 kts | 131° |
| 2026-05-04 03:53 | -28.44656 | 135.33600 | 39179 ft | 510 kts | 131° |
| 2026-05-04 03:53 | -28.49140 | 135.39840 | 39176 ft | 510 kts | 131° |
| 2026-05-04 03:54 | -28.53631 | 135.46096 | 39174 ft | 510 kts | 131° |
| 2026-05-04 03:54 | -28.58118 | 135.52358 | 39175 ft | 510 kts | 131° |
| 2026-05-04 03:55 | -28.62571 | 135.58581 | 39174 ft | 509 kts | 131° |
| 2026-05-04 03:55 | -28.67044 | 135.64842 | 39175 ft | 510 kts | 131° |
| 2026-05-04 03:56 | -28.71520 | 135.71116 | 39177 ft | 510 kts | 131° |
| 2026-05-04 03:56 | -28.75995 | 135.77399 | 39176 ft | 510 kts | 131° |
| 2026-05-04 03:57 | -28.80439 | 135.83646 | 39173 ft | 510 kts | 131° |
| 2026-05-04 03:57 | -28.84910 | 135.89942 | 39175 ft | 510 kts | 131° |
| 2026-05-04 03:58 | -28.91580 | 135.99350 | 39168 ft | 510 kts | 131° |
| 2026-05-04 03:58 | -28.96041 | 136.05656 | 39169 ft | 510 kts | 131° |
| 2026-05-04 03:59 | -29.00497 | 136.11964 | 39164 ft | 510 kts | 131° |
| 2026-05-04 03:59 | -29.04948 | 136.18274 | 39165 ft | 510 kts | 131° |
| 2026-05-04 04:00 | -29.09370 | 136.24552 | 39161 ft | 510 kts | 131° |
| 2026-05-04 04:00 | -29.13824 | 136.30887 | 39160 ft | 510 kts | 131° |
| 2026-05-04 04:01 | -29.18277 | 136.37228 | 39160 ft | 510 kts | 131° |
| 2026-05-04 04:01 | -29.22695 | 136.43530 | 39158 ft | 510 kts | 131° |
| 2026-05-04 04:02 | -29.27137 | 136.49876 | 39154 ft | 510 kts | 130° |
| 2026-05-04 04:02 | -29.31576 | 136.56228 | 39152 ft | 510 kts | 130° |
| 2026-05-04 04:03 | -29.36010 | 136.62582 | 39155 ft | 510 kts | 130° |
| 2026-05-04 04:03 | -29.40440 | 136.68940 | 39155 ft | 511 kts | 130° |
| 2026-05-04 04:04 | -29.44845 | 136.75272 | 39152 ft | 511 kts | 130° |
| 2026-05-04 04:04 | -29.49275 | 136.81650 | 39155 ft | 511 kts | 130° |
| 2026-05-04 04:05 | -29.53710 | 136.88045 | 39151 ft | 511 kts | 130° |
| 2026-05-04 04:05 | -29.58115 | 136.94406 | 39149 ft | 511 kts | 130° |
| 2026-05-04 04:06 | -29.62546 | 137.00816 | 39151 ft | 512 kts | 130° |
| 2026-05-04 04:06 | -29.66977 | 137.07234 | 39148 ft | 512 kts | 130° |
| 2026-05-04 04:07 | -29.71409 | 137.13666 | 39148 ft | 512 kts | 130° |
| 2026-05-04 04:07 | -29.75810 | 137.20063 | 39140 ft | 513 kts | 130° |
| 2026-05-04 04:08 | -29.80249 | 137.26524 | 39146 ft | 513 kts | 130° |
| 2026-05-04 04:08 | -29.84670 | 137.32970 | 39148 ft | 513 kts | 130° |
| 2026-05-04 04:09 | -29.89109 | 137.39452 | 39146 ft | 514 kts | 130° |
| 2026-05-04 04:09 | -29.93508 | 137.45885 | 39143 ft | 514 kts | 130° |
| 2026-05-04 04:10 | -29.97944 | 137.52384 | 39141 ft | 514 kts | 130° |
| 2026-05-04 04:10 | -30.02374 | 137.58886 | 39142 ft | 515 kts | 130° |
| 2026-05-04 04:11 | -30.06780 | 137.65361 | 39146 ft | 516 kts | 130° |
| 2026-05-04 04:11 | -30.11216 | 137.71891 | 39142 ft | 516 kts | 130° |
| 2026-05-04 04:12 | -30.15626 | 137.78394 | 39141 ft | 517 kts | 130° |
| 2026-05-04 04:12 | -30.20060 | 137.84942 | 39143 ft | 517 kts | 130° |
| 2026-05-04 04:13 | -30.24500 | 137.91509 | 39148 ft | 518 kts | 130° |
| 2026-05-04 04:13 | -30.28944 | 137.98092 | 39148 ft | 518 kts | 130° |
| 2026-05-04 04:14 | -30.33362 | 138.04647 | 39146 ft | 519 kts | 130° |
| 2026-05-04 04:14 | -30.37803 | 138.11245 | 39148 ft | 520 kts | 130° |
| 2026-05-04 04:15 | -30.42257 | 138.17874 | 39138 ft | 520 kts | 130° |
| 2026-05-04 04:15 | -30.46706 | 138.24507 | 39144 ft | 521 kts | 130° |
| 2026-05-04 04:16 | -30.51158 | 138.31156 | 39138 ft | 522 kts | 130° |
| 2026-05-04 04:16 | -30.55610 | 138.37815 | 39145 ft | 523 kts | 130° |
| 2026-05-04 04:17 | -30.60111 | 138.44386 | 39131 ft | 520 kts | 138° |
| 2026-05-04 04:17 | -30.65487 | 138.49958 | 39126 ft | 519 kts | 142° |
| 2026-05-04 04:18 | -30.70889 | 138.55522 | 39132 ft | 519 kts | 142° |
| 2026-05-04 04:18 | -30.76302 | 138.61086 | 39133 ft | 519 kts | 142° |
| 2026-05-04 04:19 | -30.81679 | 138.66622 | 39128 ft | 519 kts | 142° |
| 2026-05-04 04:19 | -30.87092 | 138.72203 | 39124 ft | 519 kts | 142° |
| 2026-05-04 04:20 | -30.92498 | 138.77786 | 39127 ft | 520 kts | 142° |
| 2026-05-04 04:20 | -30.97911 | 138.83384 | 39121 ft | 520 kts | 142° |
| 2026-05-04 04:21 | -31.03292 | 138.88959 | 39118 ft | 520 kts | 142° |
| 2026-05-04 04:21 | -31.08703 | 138.94573 | 39115 ft | 520 kts | 142° |
| 2026-05-04 04:22 | -31.14117 | 139.00199 | 39115 ft | 521 kts | 142° |
| 2026-05-04 04:22 | -31.19538 | 139.05842 | 39108 ft | 521 kts | 142° |
| 2026-05-04 04:23 | -31.24910 | 139.11442 | 39104 ft | 517 kts | 141° |
| 2026-05-04 04:23 | -31.30252 | 139.17020 | 39103 ft | 513 kts | 141° |
| 2026-05-04 04:24 | -31.35561 | 139.22572 | 39109 ft | 514 kts | 141° |
| 2026-05-04 04:24 | -31.40891 | 139.28156 | 39101 ft | 513 kts | 141° |
| 2026-05-04 04:25 | -31.46217 | 139.33743 | 39104 ft | 514 kts | 141° |
| 2026-05-04 04:25 | -31.51547 | 139.39345 | 39099 ft | 514 kts | 141° |
| 2026-05-04 04:26 | -31.56865 | 139.44943 | 39095 ft | 514 kts | 141° |
| 2026-05-04 04:26 | -31.62160 | 139.50524 | 39097 ft | 514 kts | 141° |
| 2026-05-04 04:27 | -31.67479 | 139.56140 | 39097 ft | 514 kts | 141° |
| 2026-05-04 04:27 | -31.72792 | 139.61759 | 39090 ft | 514 kts | 141° |
| 2026-05-04 04:28 | -31.78080 | 139.67360 | 39089 ft | 514 kts | 141° |
| 2026-05-04 04:28 | -31.83389 | 139.72993 | 39090 ft | 514 kts | 141° |
| 2026-05-04 04:29 | -31.88701 | 139.78638 | 39087 ft | 514 kts | 141° |
| 2026-05-04 04:29 | -31.94000 | 139.84279 | 39085 ft | 514 kts | 141° |
| 2026-05-04 04:30 | -31.99307 | 139.89937 | 39087 ft | 514 kts | 141° |
| 2026-05-04 04:30 | -32.04585 | 139.95573 | 39081 ft | 514 kts | 141° |
| 2026-05-04 04:31 | -32.09879 | 140.01236 | 39084 ft | 514 kts | 141° |
| 2026-05-04 04:31 | -32.15169 | 140.06904 | 39083 ft | 514 kts | 141° |
| 2026-05-04 04:32 | -32.20437 | 140.12557 | 39068 ft | 514 kts | 141° |
| 2026-05-04 04:32 | -32.25724 | 140.18240 | 39071 ft | 514 kts | 141° |
| 2026-05-04 04:33 | -32.31014 | 140.23935 | 39074 ft | 514 kts | 141° |
| 2026-05-04 04:33 | -32.36277 | 140.29613 | 39071 ft | 514 kts | 141° |
| 2026-05-04 04:34 | -32.41558 | 140.35318 | 39068 ft | 514 kts | 141° |
| 2026-05-04 04:34 | -32.46842 | 140.41034 | 39071 ft | 514 kts | 141° |
| 2026-05-04 04:35 | -32.52092 | 140.46725 | 39066 ft | 514 kts | 141° |
| 2026-05-04 04:35 | -32.57370 | 140.52453 | 39063 ft | 514 kts | 141° |
| 2026-05-04 04:36 | -32.62637 | 140.58182 | 39060 ft | 514 kts | 141° |
| 2026-05-04 04:36 | -32.67919 | 140.63936 | 39062 ft | 514 kts | 141° |
| 2026-05-04 04:37 | -32.78436 | 140.75421 | 39057 ft | 514 kts | 141° |
| 2026-05-04 04:38 | -32.83700 | 140.81183 | 39056 ft | 514 kts | 141° |
| 2026-05-04 04:38 | -32.88073 | 140.85978 | 39050 ft | 514 kts | 141° |
| 2026-05-04 04:39 | -32.94199 | 140.92706 | 39052 ft | 514 kts | 141° |
| 2026-05-04 04:39 | -32.99459 | 140.98495 | 39053 ft | 515 kts | 141° |
| 2026-05-04 04:40 | -33.03837 | 141.03319 | 39050 ft | 515 kts | 141° |
| 2026-05-04 04:40 | -33.09104 | 141.09133 | 39048 ft | 515 kts | 141° |
| 2026-05-04 04:41 | -33.14366 | 141.14951 | 39047 ft | 515 kts | 140° |
| 2026-05-04 04:41 | -33.19601 | 141.20749 | 39046 ft | 516 kts | 140° |
| 2026-05-04 04:42 | -33.24864 | 141.26588 | 39045 ft | 516 kts | 140° |
| 2026-05-04 04:42 | -33.30129 | 141.32439 | 39045 ft | 516 kts | 140° |
| 2026-05-04 04:43 | -33.35401 | 141.38309 | 39042 ft | 517 kts | 140° |
| 2026-05-04 04:43 | -33.40631 | 141.44142 | 39040 ft | 517 kts | 140° |
| 2026-05-04 04:44 | -33.45889 | 141.50015 | 39043 ft | 517 kts | 140° |
| 2026-05-04 04:44 | -33.51158 | 141.55912 | 39039 ft | 517 kts | 140° |
| 2026-05-04 04:45 | -33.56383 | 141.61770 | 39035 ft | 518 kts | 140° |
| 2026-05-04 04:47 | -33.74789 | 141.82486 | 39030 ft | 518 kts | 140° |
| 2026-05-04 04:47 | -33.80042 | 141.88420 | 39028 ft | 518 kts | 140° |
| 2026-05-04 04:48 | -33.85291 | 141.94363 | 39033 ft | 518 kts | 140° |
| 2026-05-04 04:49 | -33.98413 | 142.09262 | 39024 ft | 519 kts | 140° |
| 2026-05-04 04:49 | -34.03668 | 142.15248 | 39020 ft | 520 kts | 140° |
| 2026-05-04 04:50 | -34.08891 | 142.21208 | 39021 ft | 520 kts | 140° |
| 2026-05-04 04:50 | -34.14147 | 142.27216 | 39017 ft | 520 kts | 140° |
| 2026-05-04 04:51 | -34.19407 | 142.33239 | 39016 ft | 520 kts | 140° |
| 2026-05-04 04:51 | -34.24661 | 142.39268 | 39014 ft | 521 kts | 140° |
| 2026-05-04 04:52 | -34.29887 | 142.45273 | 39011 ft | 521 kts | 140° |
| 2026-05-04 04:52 | -34.35139 | 142.51320 | 39006 ft | 521 kts | 140° |
| 2026-05-04 04:53 | -34.40400 | 142.57389 | 39004 ft | 521 kts | 140° |
| 2026-05-04 04:53 | -34.45622 | 142.63424 | 39005 ft | 522 kts | 140° |
| 2026-05-04 04:54 | -34.50876 | 142.69506 | 39001 ft | 522 kts | 140° |
| 2026-05-04 04:54 | -34.56134 | 142.75604 | 38997 ft | 522 kts | 139° |
| 2026-05-04 04:55 | -34.61352 | 142.81665 | 38997 ft | 522 kts | 139° |
| 2026-05-04 04:55 | -34.66608 | 142.87781 | 38994 ft | 522 kts | 139° |
| 2026-05-04 04:56 | -34.71853 | 142.93895 | 38997 ft | 523 kts | 139° |
| 2026-05-04 04:56 | -34.77080 | 142.99999 | 38992 ft | 523 kts | 139° |
| 2026-05-04 04:57 | -34.82323 | 143.06134 | 38990 ft | 523 kts | 139° |
| 2026-05-04 04:57 | -34.87568 | 143.12282 | 38988 ft | 523 kts | 139° |
| 2026-05-04 04:58 | -34.92809 | 143.18435 | 38986 ft | 523 kts | 139° |
| 2026-05-04 04:58 | -34.98256 | 143.24269 | 38968 ft | 514 kts | 154° |
| 2026-05-04 04:59 | -35.04344 | 143.28848 | 38974 ft | 515 kts | 153° |
| 2026-05-04 04:59 | -35.10397 | 143.33427 | 38977 ft | 515 kts | 153° |
| 2026-05-04 05:00 | -35.16500 | 143.38035 | 38976 ft | 515 kts | 153° |
| 2026-05-04 05:01 | -35.25646 | 143.44953 | 38975 ft | 515 kts | 153° |
| 2026-05-04 05:01 | -35.31740 | 143.49575 | 38971 ft | 515 kts | 153° |
| 2026-05-04 05:02 | -35.37805 | 143.54181 | 38972 ft | 515 kts | 153° |
| 2026-05-04 05:02 | -35.43897 | 143.58816 | 38970 ft | 515 kts | 153° |
| 2026-05-04 05:03 | -35.49993 | 143.63464 | 38967 ft | 515 kts | 152° |
| 2026-05-04 05:04 | -35.62101 | 143.72718 | 38634 ft | 507 kts | 152° |
| 2026-05-04 05:04 | -35.65091 | 143.75009 | 38062 ft | 504 kts | 152° |
| 2026-05-04 05:04 | -35.68059 | 143.77285 | 37488 ft | 502 kts | 152° |
| 2026-05-04 05:06 | -35.88580 | 143.93076 | 33685 ft | 492 kts | 152° |
| 2026-05-04 05:06 | -35.91488 | 143.95321 | 33051 ft | 492 kts | 152° |
| 2026-05-04 05:06 | -35.94357 | 143.97538 | 32478 ft | 491 kts | 152° |
| 2026-05-04 05:07 | -35.97244 | 143.99772 | 31966 ft | 488 kts | 152° |
| 2026-05-04 05:07 | -36.00127 | 144.02004 | 31457 ft | 486 kts | 152° |
| 2026-05-04 05:07 | -36.02987 | 144.04220 | 30942 ft | 485 kts | 151° |
| 2026-05-04 05:09 | -36.25391 | 144.21649 | 26872 ft | 464 kts | 150° |
| 2026-05-04 05:09 | -36.28124 | 144.23783 | 26399 ft | 461 kts | 150° |
| 2026-05-04 05:10 | -36.30842 | 144.25907 | 25928 ft | 459 kts | 150° |
| 2026-05-04 05:10 | -36.33532 | 144.28011 | 25462 ft | 456 kts | 150° |
| 2026-05-04 05:10 | -36.36212 | 144.30110 | 24998 ft | 454 kts | 150° |
| 2026-05-04 05:10 | -36.38873 | 144.32194 | 24540 ft | 451 kts | 150° |
| 2026-05-04 05:11 | -36.41493 | 144.34249 | 24086 ft | 449 kts | 150° |
| 2026-05-04 05:11 | -36.44129 | 144.36318 | 23626 ft | 447 kts | 149° |
| 2026-05-04 05:11 | -36.46753 | 144.38378 | 23097 ft | 445 kts | 150° |
| 2026-05-04 05:11 | -36.49358 | 144.40426 | 22609 ft | 442 kts | 150° |
| 2026-05-04 05:12 | -36.51944 | 144.42461 | 22164 ft | 437 kts | 150° |
| 2026-05-04 05:12 | -36.54504 | 144.44476 | 21714 ft | 433 kts | 150° |
| 2026-05-04 05:12 | -36.57038 | 144.46473 | 21280 ft | 430 kts | 150° |
| 2026-05-04 05:12 | -36.59555 | 144.48457 | 20840 ft | 426 kts | 150° |
| 2026-05-04 05:13 | -36.62052 | 144.50428 | 20406 ft | 423 kts | 150° |
| 2026-05-04 05:13 | -36.64527 | 144.52383 | 19969 ft | 420 kts | 150° |
| 2026-05-04 05:13 | -36.66989 | 144.54329 | 19542 ft | 417 kts | 150° |
| 2026-05-04 05:13 | -36.69428 | 144.56258 | 19120 ft | 414 kts | 150° |
| 2026-05-04 05:14 | -36.71827 | 144.58156 | 18702 ft | 412 kts | 150° |
| 2026-05-04 05:14 | -36.74240 | 144.60067 | 18285 ft | 409 kts | 150° |
| 2026-05-04 05:14 | -36.76633 | 144.61964 | 17814 ft | 407 kts | 150° |
| 2026-05-04 05:14 | -36.79011 | 144.63850 | 17370 ft | 403 kts | 150° |
| 2026-05-04 05:15 | -36.81513 | 144.65332 | 16890 ft | 394 kts | 169° |
| 2026-05-04 05:15 | -36.84169 | 144.65930 | 16549 ft | 385 kts | 174° |
| 2026-05-04 05:15 | -36.86791 | 144.66511 | 16167 ft | 381 kts | 174° |
| 2026-05-04 05:15 | -36.89384 | 144.67087 | 15777 ft | 377 kts | 174° |
| 2026-05-04 05:16 | -36.91959 | 144.67656 | 15382 ft | 374 kts | 174° |
| 2026-05-04 05:16 | -36.94514 | 144.68221 | 14999 ft | 371 kts | 174° |
| 2026-05-04 05:16 | -36.97047 | 144.68781 | 14611 ft | 368 kts | 174° |
| 2026-05-04 05:16 | -36.99564 | 144.69337 | 14230 ft | 366 kts | 174° |
| 2026-05-04 05:17 | -37.02062 | 144.69890 | 13840 ft | 364 kts | 174° |
| 2026-05-04 05:17 | -37.04550 | 144.70441 | 13425 ft | 361 kts | 174° |
| 2026-05-04 05:17 | -37.07014 | 144.70987 | 13014 ft | 358 kts | 174° |
| 2026-05-04 05:17 | -37.09462 | 144.71530 | 12640 ft | 355 kts | 174° |
| 2026-05-04 05:18 | -37.11888 | 144.72069 | 12256 ft | 352 kts | 174° |
| 2026-05-04 05:18 | -37.14261 | 144.72595 | 11888 ft | 349 kts | 174° |
| 2026-05-04 05:18 | -37.16639 | 144.73132 | 11503 ft | 346 kts | 173° |
| 2026-05-04 05:18 | -37.18990 | 144.73757 | 11122 ft | 345 kts | 172° |
| 2026-05-04 05:19 | -37.21334 | 144.74382 | 10756 ft | 343 kts | 172° |
| 2026-05-04 05:19 | -37.23664 | 144.75000 | 10390 ft | 341 kts | 172° |
| 2026-05-04 05:19 | -37.25975 | 144.75611 | 10078 ft | 337 kts | 172° |
| 2026-05-04 05:19 | -37.28257 | 144.76214 | 9763 ft | 334 kts | 172° |
| 2026-05-04 05:20 | -37.30531 | 144.76816 | 9377 ft | 332 kts | 172° |
| 2026-05-04 05:20 | -37.32786 | 144.77410 | 9043 ft | 329 kts | 173° |
| 2026-05-04 05:20 | -37.34996 | 144.77825 | 9018 ft | 313 kts | 177° |
| 2026-05-04 05:20 | -37.37116 | 144.78191 | 9016 ft | 303 kts | 177° |
| 2026-05-04 05:21 | -37.39171 | 144.78554 | 9007 ft | 301 kts | 177° |
| 2026-05-04 05:21 | -37.41252 | 144.78929 | 9008 ft | 301 kts | 177° |
| 2026-05-04 05:21 | -37.43330 | 144.79306 | 9008 ft | 301 kts | 177° |
| 2026-05-04 05:21 | -37.45405 | 144.79642 | 8992 ft | 298 kts | 184° |
| 2026-05-04 05:22 | -37.47378 | 144.79198 | 8998 ft | 283 kts | 208° |
| 2026-05-04 05:22 | -37.49233 | 144.78342 | 8995 ft | 285 kts | 207° |
| 2026-05-04 05:22 | -37.51095 | 144.77486 | 8996 ft | 285 kts | 207° |
| 2026-05-04 05:22 | -37.52954 | 144.76620 | 8998 ft | 284 kts | 207° |
| 2026-05-04 05:23 | -37.54805 | 144.75751 | 8995 ft | 284 kts | 208° |
| 2026-05-04 05:23 | -37.56644 | 144.74882 | 8755 ft | 282 kts | 208° |
| 2026-05-04 05:23 | -37.58489 | 144.74030 | 8538 ft | 279 kts | 203° |
| 2026-05-04 05:23 | -37.60394 | 144.73710 | 8478 ft | 271 kts | 189° |
| 2026-05-04 05:24 | -37.62236 | 144.73593 | 8028 ft | 269 kts | 189° |
| 2026-05-04 05:24 | -37.64101 | 144.73460 | 7588 ft | 267 kts | 189° |
| 2026-05-04 05:24 | -37.65958 | 144.73327 | 7284 ft | 267 kts | 189° |
| 2026-05-04 05:24 | -37.67814 | 144.73194 | 6972 ft | 267 kts | 189° |
| 2026-05-04 05:25 | -37.69660 | 144.73062 | 6722 ft | 264 kts | 189° |
| 2026-05-04 05:25 | -37.71453 | 144.72991 | 6695 ft | 251 kts | 187° |
| 2026-05-04 05:25 | -37.73165 | 144.72965 | 6546 ft | 244 kts | 188° |
| 2026-05-04 05:25 | -37.74291 | 144.72942 | 6370 ft | 244 kts | 187° |
| 2026-05-04 05:26 | -37.75973 | 144.72916 | 6199 ft | 237 kts | 187° |
| 2026-05-04 05:26 | -37.77546 | 144.72901 | 6165 ft | 221 kts | 188° |
| 2026-05-04 05:26 | -37.79098 | 144.72877 | 5775 ft | 222 kts | 187° |
| 2026-05-04 05:26 | -37.80635 | 144.72929 | 5473 ft | 224 kts | 173° |
| 2026-05-04 05:27 | -37.82027 | 144.73801 | 5168 ft | 226 kts | 138° |
| 2026-05-04 05:28 | -37.83162 | 144.85329 | 2701 ft | 164 kts | 32° |
| 2026-05-04 05:29 | -37.82226 | 144.85946 | 2570 ft | 148 kts | 5° |
| 2026-05-04 05:29 | -37.81204 | 144.86014 | 2525 ft | 149 kts | 354° |
| 2026-05-04 05:29 | -37.80168 | 144.85945 | 2450 ft | 148 kts | 353° |
| 2026-05-04 05:29 | -37.79147 | 144.85845 | 2302 ft | 145 kts | 352° |
| 2026-05-04 05:31 | -37.73257 | 144.85009 | 1100 ft | 120 kts | 352° |
| 2026-05-04 05:31 | -37.72426 | 144.84839 | 1015 ft | 121 kts | 349° |
| 2026-05-04 05:32 | -37.71591 | 144.84625 | 921 ft | 123 kts | 352° |
| 2026-05-04 05:32 | -37.70726 | 144.84510 | 772 ft | 126 kts | 354° |
| 2026-05-04 05:32 | -37.69857 | 144.84334 | 609 ft | 126 kts | 353° |
| 2026-05-04 05:33 | -37.68163 | 144.84018 | 362 ft | 116 kts | 352° |
| 2026-05-04 05:33 | -37.67491 | 144.83897 | 371 ft | 76 kts | 352° |
| 2026-05-04 05:33 | -37.67107 | 144.83831 | 385 ft | 36 kts | 360° |
| 2026-05-04 05:33 | -37.66932 | 144.83866 | 391 ft | 16 kts | 18° |
| 2026-05-04 05:34 | -37.66870 | 144.83897 | 393 ft | 0 kts | 22° |
| 2026-05-04 05:34 | -37.66862 | 144.83901 | 393 ft | 3 kts | 22° |
| 2026-05-04 05:34 | -37.66823 | 144.83921 | 393 ft | 9 kts | 21° |
| 2026-05-04 05:34 | -37.66757 | 144.83962 | 391 ft | 11 kts | 33° |
| 2026-05-04 05:35 | -37.66718 | 144.84046 | 393 ft | 13 kts | 81° |
| 2026-05-04 05:35 | -37.66748 | 144.84155 | 396 ft | 16 kts | 132° |
| 2026-05-04 05:35 | -37.66853 | 144.84204 | 392 ft | 16 kts | 172° |
| 2026-05-04 05:35 | -37.66973 | 144.84227 | 389 ft | 17 kts | 171° |
| 2026-05-04 05:36 | -37.67081 | 144.84248 | 387 ft | 15 kts | 171° |
| 2026-05-04 05:36 | -37.67165 | 144.84266 | 385 ft | 9 kts | 168° |
| 2026-05-04 05:36 | -37.67205 | 144.84334 | 385 ft | 11 kts | 91° |
| 2026-05-04 05:36 | -37.67199 | 144.84437 | 387 ft | 11 kts | 97° |
| 2026-05-04 05:37 | -37.67212 | 144.84520 | 387 ft | 10 kts | 91° |
| 2026-05-04 05:37 | -37.67203 | 144.84598 | 389 ft | 8 kts | 81° |
| 2026-05-04 05:37 | -37.67195 | 144.84670 | 390 ft | 7 kts | 82° |
| 2026-05-04 05:38 | -37.67208 | 144.84754 | 391 ft | 4 kts | 142° |
| 2026-05-04 05:38 | -37.67233 | 144.84761 | 390 ft | 5 kts | 169° |
| 2026-05-04 05:38 | -37.67252 | 144.84765 | 390 ft | 3 kts | 171° |
| 2026-05-04 05:38 | -37.67260 | 144.84767 | 390 ft | 0 kts | 172° |